createdAt,value
2022-09-06T00:00:54.271Z,74.82
2022-09-06T00:01:55.830Z,74.70
2022-09-06T00:02:57.531Z,74.81
2022-09-06T00:03:59.177Z,74.75
2022-09-06T00:05:01.352Z,74.85
2022-09-06T00:06:10.560Z,74.94
2022-09-06T00:07:12.950Z,74.89
2022-09-06T00:08:17.166Z,74.71
2022-09-06T00:09:18.619Z,74.67
2022-09-06T00:10:20.532Z,75.07
2022-09-06T00:11:22.121Z,75.17
2022-09-06T00:12:24.021Z,75.16
2022-09-06T00:13:25.813Z,75.94
2022-09-06T00:14:27.355Z,75.72
2022-09-06T00:15:29.165Z,75.78
2022-09-06T00:16:30.816Z,75.60
2022-09-06T00:17:32.889Z,75.85
2022-09-06T00:18:34.443Z,76.07
2022-09-06T00:19:36.046Z,75.88
2022-09-06T00:20:40.818Z,76.33
2022-09-06T00:21:42.276Z,75.67
2022-09-06T00:22:43.796Z,75.91
2022-09-06T00:23:45.387Z,75.82
2022-09-06T00:24:47.039Z,75.58
2022-09-06T00:25:48.636Z,75.62
2022-09-06T00:26:50.555Z,75.41
2022-09-06T00:27:56.024Z,75.10
2022-09-06T00:28:57.596Z,75.17
2022-09-06T00:29:59.563Z,75.15
2022-09-06T00:31:42.854Z,75.03
2022-09-06T00:32:44.464Z,74.92
2022-09-06T00:33:46.279Z,75.24
2022-09-06T00:34:47.894Z,75.08
2022-09-06T00:35:50.162Z,75.13
2022-09-06T00:36:51.759Z,75.15
2022-09-06T00:38:00.332Z,75.34
2022-09-06T00:39:02.653Z,75.45
2022-09-06T00:40:04.699Z,75.05
2022-09-06T00:41:07.399Z,75.30
2022-09-06T00:42:10.171Z,75.05
2022-09-06T00:43:11.881Z,75.27
2022-09-06T00:44:13.893Z,75.49
2022-09-06T00:45:15.758Z,75.53
2022-09-06T00:46:19.021Z,75.52
2022-09-06T00:47:21.068Z,75.09
2022-09-06T00:48:23.099Z,75.00
2022-09-06T00:49:26.469Z,74.84
2022-09-06T00:50:28.949Z,74.79
2022-09-06T00:51:32.999Z,74.84
2022-09-06T00:52:36.546Z,74.81
2022-09-06T00:53:38.668Z,74.59
2022-09-06T00:54:41.953Z,74.80
2022-09-06T00:55:43.892Z,74.67
2022-09-06T00:56:45.884Z,74.68
2022-09-06T00:57:50.976Z,74.93
2022-09-06T00:58:52.949Z,74.98
2022-09-06T00:59:56.891Z,75.14
2022-09-06T01:00:58.449Z,75.30
2022-09-06T01:02:00.262Z,75.61
2022-09-06T01:03:02.014Z,75.36
2022-09-06T01:04:04.194Z,75.39
2022-09-06T01:05:05.960Z,75.36
2022-09-06T01:06:16.852Z,75.33
2022-09-06T01:07:27.295Z,75.53
2022-09-06T01:08:35.373Z,75.44
2022-09-06T01:09:46.552Z,75.46
2022-09-06T01:10:50.900Z,75.76
2022-09-06T01:11:58.596Z,75.71
2022-09-06T01:13:20.015Z,75.75
2022-09-06T01:14:25.013Z,75.80
2022-09-06T01:15:35.064Z,75.64
2022-09-06T01:16:42.890Z,75.69
2022-09-06T01:18:08.189Z,75.73
2022-09-06T01:19:09.695Z,75.83
2022-09-06T01:20:11.183Z,75.90
2022-09-06T01:21:31.416Z,75.78
2022-09-06T01:22:41.475Z,75.69
2022-09-06T01:23:49.065Z,75.68
2022-09-06T01:25:00.075Z,75.61
2022-09-06T01:26:27.200Z,75.95
2022-09-06T01:27:28.916Z,75.89
2022-09-06T01:28:35.385Z,75.72
2022-09-06T01:29:56.185Z,75.81
2022-09-06T01:31:04.720Z,75.96
2022-09-06T01:32:11.860Z,75.88
2022-09-06T01:33:24.335Z,75.63
2022-09-06T01:34:34.780Z,75.51
2022-09-06T01:35:36.376Z,75.58
2022-09-06T01:37:08.279Z,75.50
2022-09-06T01:38:10.249Z,75.70
2022-09-06T01:39:20.204Z,75.80
2022-09-06T01:40:22.008Z,75.74
2022-09-06T01:41:26.818Z,75.87
2022-09-06T01:42:30.778Z,75.95
2022-09-06T01:43:34.664Z,75.78
2022-09-06T01:44:37.531Z,75.72
2022-09-06T01:45:45.270Z,75.84
2022-09-06T01:46:59.874Z,75.79
2022-09-06T01:48:01.372Z,75.44
2022-09-06T01:49:07.795Z,75.42
2022-09-06T01:50:09.438Z,75.37
2022-09-06T01:51:14.452Z,75.39
2022-09-06T01:52:39.481Z,75.48
2022-09-06T01:53:50.994Z,75.47
2022-09-06T01:55:18.923Z,75.62
2022-09-06T01:56:32.550Z,75.51
2022-09-06T01:57:54.448Z,75.46
2022-09-06T01:58:59.334Z,75.54
2022-09-06T02:00:00.941Z,75.41
2022-09-06T02:01:05.545Z,76.02
2022-09-06T02:02:12.145Z,75.65
2022-09-06T02:03:13.839Z,75.87
2022-09-06T02:04:21.434Z,76.22
2022-09-06T02:05:26.888Z,76.03
2022-09-06T02:06:39.382Z,76.35
2022-09-06T02:07:42.984Z,76.10
2022-09-06T02:08:46.849Z,76.02
2022-09-06T02:09:51.860Z,75.93
2022-09-06T02:10:56.699Z,75.77
2022-09-06T02:11:59.392Z,75.64
2022-09-06T02:13:01.949Z,75.76
2022-09-06T02:14:09.078Z,75.92
2022-09-06T02:15:14.476Z,75.97
2022-09-06T02:16:19.588Z,75.99
2022-09-06T02:17:24.426Z,75.93
2022-09-06T02:18:46.368Z,75.96
2022-09-06T02:20:00.816Z,75.93
2022-09-06T02:21:03.643Z,75.73
2022-09-06T02:22:07.910Z,75.62
2022-09-06T02:23:09.714Z,75.41
2022-09-06T02:24:20.326Z,75.28
2022-09-06T02:25:24.912Z,75.33
2022-09-06T02:26:30.236Z,75.26
2022-09-06T02:27:32.205Z,75.27
2022-09-06T02:28:33.964Z,75.01
2022-09-06T02:29:35.666Z,75.24
2022-09-06T02:30:47.030Z,75.26
2022-09-06T02:31:51.970Z,75.11
2022-09-06T02:32:57.215Z,75.07
2022-09-06T02:33:59.124Z,75.17
2022-09-06T02:35:07.315Z,75.07
2022-09-06T02:36:09.127Z,75.14
2022-09-06T02:37:14.973Z,75.14
2022-09-06T02:38:17.450Z,75.33
2022-09-06T02:39:19.099Z,75.35
2022-09-06T02:40:20.719Z,75.08
2022-09-06T02:41:23.654Z,75.31
2022-09-06T02:42:27.999Z,75.49
2022-09-06T02:43:30.049Z,75.48
2022-09-06T02:44:32.406Z,75.40
2022-09-06T02:45:34.229Z,75.70
2022-09-06T02:46:38.794Z,75.54
2022-09-06T02:47:40.383Z,75.41
2022-09-06T02:48:42.257Z,75.74
2022-09-06T02:49:44.642Z,75.53
2022-09-06T02:50:46.266Z,75.40
2022-09-06T02:51:47.936Z,75.61
2022-09-06T02:53:05.911Z,75.86
2022-09-06T02:54:07.469Z,75.37
2022-09-06T02:55:09.289Z,75.36
2022-09-06T02:56:11.101Z,75.52
2022-09-06T02:57:12.688Z,75.27
2022-09-06T02:58:14.760Z,75.40
2022-09-06T02:59:16.314Z,75.47
2022-09-06T03:00:18.136Z,75.47
2022-09-06T03:01:19.822Z,75.67
2022-09-06T03:02:21.697Z,75.46
2022-09-06T03:03:25.500Z,75.38
2022-09-06T03:04:27.365Z,75.48
2022-09-06T03:05:29.476Z,75.44
2022-09-06T03:06:32.006Z,75.66
2022-09-06T03:07:33.708Z,75.55
2022-09-06T03:08:36.503Z,75.66
2022-09-06T03:09:38.204Z,75.60
2022-09-06T03:10:39.898Z,75.63
2022-09-06T03:11:41.875Z,75.70
2022-09-06T03:12:43.934Z,75.72
2022-09-06T03:13:45.521Z,75.66
2022-09-06T03:14:47.425Z,75.78
2022-09-06T03:15:52.611Z,75.93
2022-09-06T03:16:54.237Z,75.84
2022-09-06T03:17:59.158Z,76.05
2022-09-06T03:19:01.037Z,75.95
2022-09-06T03:20:03.546Z,75.91
2022-09-06T03:21:05.300Z,76.02
2022-09-06T03:22:06.820Z,76.04
2022-09-06T03:23:09.084Z,76.10
2022-09-06T03:24:10.674Z,75.90
2022-09-06T03:25:12.252Z,75.99
2022-09-06T03:26:13.804Z,76.13
2022-09-06T03:27:15.386Z,76.08
2022-09-06T03:28:18.123Z,76.02
2022-09-06T03:29:19.774Z,76.25
2022-09-06T03:30:24.040Z,76.26
2022-09-06T03:31:25.759Z,76.40
2022-09-06T03:32:27.587Z,76.07
2022-09-06T03:33:29.233Z,76.18
2022-09-06T03:34:30.922Z,76.04
2022-09-06T03:35:32.897Z,76.01
2022-09-06T03:36:34.644Z,76.07
2022-09-06T03:37:36.423Z,75.95
2022-09-06T03:38:37.988Z,76.34
2022-09-06T03:39:39.664Z,76.35
2022-09-06T03:40:43.325Z,76.11
2022-09-06T03:41:45.302Z,75.95
2022-09-06T03:42:46.954Z,76.05
2022-09-06T03:43:48.609Z,75.81
2022-09-06T03:44:50.553Z,76.07
2022-09-06T03:45:53.402Z,75.98
2022-09-06T03:46:57.670Z,76.15
2022-09-06T03:47:59.309Z,76.07
2022-09-06T03:49:03.574Z,76.04
2022-09-06T03:50:06.282Z,75.80
2022-09-06T03:51:07.883Z,75.84
2022-09-06T03:52:09.566Z,75.94
2022-09-06T03:53:11.325Z,76.11
2022-09-06T03:54:12.864Z,75.94
2022-09-06T03:55:14.681Z,75.91
2022-09-06T03:56:16.365Z,75.97
2022-09-06T03:57:18.096Z,76.06
2022-09-06T03:58:20.668Z,75.82
2022-09-06T03:59:22.384Z,75.83
2022-09-06T04:00:23.930Z,75.69
2022-09-06T04:01:25.769Z,75.88
2022-09-06T04:02:27.566Z,75.86
2022-09-06T04:03:29.424Z,75.89
2022-09-06T04:04:30.964Z,75.56
2022-09-06T04:05:38.322Z,75.62
2022-09-06T04:06:39.937Z,75.77
2022-09-06T04:07:49.272Z,75.85
2022-09-06T04:08:51.759Z,76.07
2022-09-06T04:09:54.455Z,75.96
2022-09-06T04:10:56.869Z,75.93
2022-09-06T04:11:59.700Z,76.10
2022-09-06T04:13:01.586Z,76.08
2022-09-06T04:14:04.817Z,76.12
2022-09-06T04:15:12.499Z,76.16
2022-09-06T04:16:23.401Z,76.20
2022-09-06T04:17:25.857Z,76.31
2022-09-06T04:18:27.748Z,76.45
2022-09-06T04:19:30.755Z,76.60
2022-09-06T04:20:41.474Z,76.57
2022-09-06T04:21:43.048Z,76.57
2022-09-06T04:22:47.140Z,76.60
2022-09-06T04:23:48.929Z,76.53
2022-09-06T04:24:50.520Z,76.64
2022-09-06T04:25:57.658Z,76.75
2022-09-06T04:27:00.473Z,76.75
2022-09-06T04:28:03.128Z,76.87
2022-09-06T04:29:18.617Z,76.96
2022-09-06T04:30:20.569Z,77.09
2022-09-06T04:31:40.282Z,77.18
2022-09-06T04:32:48.031Z,77.20
2022-09-06T04:33:49.634Z,77.05
2022-09-06T04:34:51.435Z,77.21
2022-09-06T04:35:54.431Z,77.19
2022-09-06T04:36:56.749Z,77.19
2022-09-06T04:38:03.645Z,76.98
2022-09-06T04:39:05.665Z,77.11
2022-09-06T04:40:07.535Z,77.10
2022-09-06T04:41:15.859Z,77.08
2022-09-06T04:42:19.975Z,77.11
2022-09-06T04:43:40.970Z,76.84
2022-09-06T04:44:45.672Z,77.00
2022-09-06T04:45:48.050Z,77.01
2022-09-06T04:46:50.738Z,76.88
2022-09-06T04:48:10.558Z,77.00
2022-09-06T04:49:21.530Z,76.65
2022-09-06T04:50:26.493Z,76.71
2022-09-06T04:51:29.594Z,76.80
2022-09-06T04:52:32.934Z,76.93
2022-09-06T04:53:35.622Z,76.63
2022-09-06T04:54:37.950Z,76.62
2022-09-06T04:55:40.934Z,76.72
2022-09-06T04:56:46.578Z,76.67
2022-09-06T04:57:51.225Z,76.50
2022-09-06T04:58:54.797Z,76.51
2022-09-06T04:59:56.492Z,76.71
2022-09-06T05:01:00.033Z,76.93
2022-09-06T05:02:08.023Z,76.97
2022-09-06T05:03:15.919Z,77.02
2022-09-06T05:04:18.782Z,77.09
2022-09-06T05:05:21.879Z,77.09
2022-09-06T05:06:24.449Z,76.97
2022-09-06T05:07:29.404Z,76.86
2022-09-06T05:08:31.198Z,76.78
2022-09-06T05:09:37.419Z,76.94
2022-09-06T05:10:39.203Z,77.03
2022-09-06T05:11:40.970Z,77.04
2022-09-06T05:12:49.834Z,77.03
2022-09-06T05:13:54.455Z,77.17
2022-09-06T05:15:01.657Z,77.03
2022-09-06T05:16:10.781Z,76.88
2022-09-06T05:17:14.215Z,76.95
2022-09-06T05:18:16.358Z,77.07
2022-09-06T05:19:18.714Z,77.09
2022-09-06T05:20:23.988Z,76.81
2022-09-06T05:21:26.675Z,76.73
2022-09-06T05:22:28.992Z,76.67
2022-09-06T05:23:31.726Z,76.95
2022-09-06T05:24:33.640Z,77.01
2022-09-06T05:25:35.811Z,76.68
2022-09-06T05:26:43.611Z,76.88
2022-09-06T05:27:45.393Z,76.82
2022-09-06T05:28:47.074Z,77.05
2022-09-06T05:29:48.726Z,76.96
2022-09-06T05:30:50.486Z,77.19
2022-09-06T05:31:52.821Z,77.47
2022-09-06T05:32:54.543Z,77.21
2022-09-06T05:33:57.234Z,77.56
2022-09-06T05:34:58.885Z,77.45
2022-09-06T05:36:00.540Z,77.12
2022-09-06T05:37:05.016Z,77.25
2022-09-06T05:38:06.725Z,77.13
2022-09-06T05:39:08.576Z,77.20
2022-09-06T05:40:11.334Z,77.59
2022-09-06T05:41:13.226Z,77.58
2022-09-06T05:42:19.045Z,77.48
2022-09-06T05:43:21.289Z,77.38
2022-09-06T05:44:23.006Z,77.40
2022-09-06T05:45:24.690Z,77.44
2022-09-06T05:46:26.511Z,77.12
2022-09-06T05:47:30.572Z,77.38
2022-09-06T05:48:36.806Z,77.60
2022-09-06T05:49:38.972Z,77.66
2022-09-06T05:50:40.727Z,77.60
2022-09-06T05:51:42.375Z,77.76
2022-09-06T05:52:44.168Z,77.78
2022-09-06T05:53:45.729Z,77.65
2022-09-06T05:54:47.449Z,77.53
2022-09-06T05:55:49.014Z,77.75
2022-09-06T05:56:50.720Z,77.69
2022-09-06T05:57:52.327Z,77.66
2022-09-06T05:58:54.174Z,77.77
2022-09-06T05:59:55.724Z,77.68
2022-09-06T06:01:07.617Z,77.73
2022-09-06T06:02:09.202Z,78.75
2022-09-06T06:03:10.880Z,78.67
2022-09-06T06:04:12.415Z,79.71
2022-09-06T06:05:14.400Z,78.99
2022-09-06T06:06:15.954Z,79.77
2022-09-06T06:07:17.683Z,79.75
2022-09-06T06:08:19.374Z,79.05
2022-09-06T06:09:21.059Z,79.64
2022-09-06T06:10:22.977Z,80.97
2022-09-06T06:11:25.553Z,80.32
2022-09-06T06:12:33.902Z,81.21
2022-09-06T06:13:38.949Z,80.81
2022-09-06T06:14:40.615Z,80.26
2022-09-06T06:15:49.899Z,80.32
2022-09-06T06:16:52.197Z,80.51
2022-09-06T06:17:54.053Z,80.73
2022-09-06T06:18:56.135Z,80.68
2022-09-06T06:19:58.930Z,80.12
2022-09-06T06:21:26.759Z,79.94
2022-09-06T06:22:28.441Z,79.53
2022-09-06T06:23:30.287Z,79.67
2022-09-06T06:24:31.984Z,80.09
2022-09-06T06:25:36.161Z,79.91
2022-09-06T06:26:39.794Z,79.86
2022-09-06T06:27:54.410Z,80.40
2022-09-06T06:29:09.214Z,80.09
2022-09-06T06:30:19.877Z,80.13
2022-09-06T06:31:31.548Z,79.80
2022-09-06T06:32:39.959Z,80.21
2022-09-06T06:33:56.534Z,79.99
2022-09-06T06:35:09.164Z,80.32
2022-09-06T06:36:13.830Z,80.26
2022-09-06T06:37:15.660Z,80.56
2022-09-06T06:38:50.255Z,81.27
2022-09-06T06:39:51.909Z,81.76
2022-09-06T06:40:59.455Z,80.62
2022-09-06T06:42:03.916Z,81.54
2022-09-06T06:43:07.617Z,80.90
2022-09-06T06:44:18.609Z,82.19
2022-09-06T06:45:23.773Z,81.81
2022-09-06T06:46:30.884Z,81.88
2022-09-06T06:47:32.863Z,81.23
2022-09-06T06:48:36.815Z,81.48
2022-09-06T06:49:38.480Z,81.87
2022-09-06T06:50:41.074Z,82.09
2022-09-06T06:51:42.761Z,80.77
2022-09-06T06:52:44.393Z,79.97
2022-09-06T06:53:47.146Z,79.73
2022-09-06T06:54:49.584Z,79.90
2022-09-06T06:55:52.096Z,79.56
2022-09-06T06:56:54.863Z,79.23
2022-09-06T06:58:01.165Z,79.15
2022-09-06T06:59:07.612Z,79.09
2022-09-06T07:00:10.620Z,79.01
2022-09-06T07:01:15.954Z,78.89
2022-09-06T07:02:20.306Z,78.71
2022-09-06T07:03:30.839Z,78.68
2022-09-06T07:04:32.804Z,78.65
2022-09-06T07:08:29.102Z,77.98
2022-09-06T07:10:52.314Z,77.29
2022-09-06T07:11:53.964Z,76.57
2022-09-06T07:12:55.580Z,76.32
2022-09-06T07:13:57.242Z,76.47
2022-09-06T07:14:58.798Z,76.14
2022-09-06T07:16:10.686Z,75.98
2022-09-06T07:17:12.231Z,75.98
2022-09-06T07:18:16.759Z,75.48
2022-09-06T07:22:13.568Z,73.95
2022-09-06T07:24:45.357Z,74.04
2022-09-06T07:25:47.266Z,73.05
2022-09-06T07:28:11.961Z,74.08
2022-09-06T07:29:14.283Z,73.06
2022-09-06T07:30:16.980Z,72.42
2022-09-06T07:32:41.898Z,72.85
2022-09-06T07:33:53.828Z,71.94
2022-09-06T07:35:02.890Z,71.91
2022-09-06T07:36:06.998Z,71.40
2022-09-06T07:37:11.363Z,71.39
2022-09-06T07:38:13.231Z,71.38
2022-09-06T07:39:15.094Z,70.76
2022-09-06T07:40:16.794Z,69.79
2022-09-06T07:41:20.608Z,70.20
2022-09-06T07:42:22.313Z,69.86
2022-09-06T07:43:25.967Z,69.65
2022-09-06T07:44:36.606Z,69.61
2022-09-06T07:45:38.221Z,69.32
2022-09-06T07:46:40.298Z,68.22
2022-09-06T07:48:00.346Z,67.74
2022-09-06T07:49:06.440Z,68.01
2022-09-06T07:51:47.905Z,67.18
2022-09-06T07:54:30.285Z,67.35
2022-09-06T07:55:32.900Z,65.40
2022-09-06T07:56:41.349Z,66.17
2022-09-06T07:57:46.124Z,65.17
2022-09-06T07:58:48.280Z,66.08
2022-09-06T07:59:49.783Z,65.02
2022-09-06T08:00:52.477Z,63.48
2022-09-06T08:01:54.244Z,64.30
2022-09-06T08:02:56.244Z,63.49
2022-09-06T08:04:01.079Z,63.16
2022-09-06T08:05:03.461Z,62.21
2022-09-06T08:10:02.868Z,61.51
2022-09-06T08:11:07.152Z,62.56
2022-09-06T08:12:08.951Z,62.12
2022-09-06T08:13:11.095Z,61.95
2022-09-06T08:14:14.748Z,61.60
2022-09-06T08:15:16.454Z,61.69
2022-09-06T08:16:25.349Z,60.75
2022-09-06T08:17:39.161Z,60.62
2022-09-06T08:18:43.129Z,61.02
2022-09-06T08:19:51.172Z,60.69
2022-09-06T08:21:01.778Z,60.11
2022-09-06T08:22:06.240Z,59.20
2022-09-06T08:23:10.923Z,60.55
2022-09-06T08:24:12.943Z,59.55
2022-09-06T08:25:14.529Z,58.99
2022-09-06T08:26:23.364Z,58.37
2022-09-06T08:27:25.207Z,58.79
2022-09-06T08:28:28.826Z,59.12
2022-09-06T08:29:30.566Z,59.33
2022-09-06T08:30:32.539Z,59.54
2022-09-06T08:31:35.655Z,57.69
2022-09-06T08:32:38.594Z,57.62
2022-09-06T08:33:40.887Z,57.34
2022-09-06T08:34:42.742Z,57.07
2022-09-06T08:35:53.532Z,57.08
2022-09-06T08:36:55.123Z,57.38
2022-09-06T08:38:02.293Z,58.03
2022-09-06T08:39:05.009Z,57.67
2022-09-06T08:40:07.046Z,55.93
2022-09-06T08:41:08.708Z,56.46
2022-09-06T08:42:12.534Z,57.01
2022-09-06T08:43:16.093Z,56.18
2022-09-06T08:45:55.848Z,54.98
2022-09-06T08:47:03.258Z,54.93
2022-09-06T08:48:05.052Z,54.65
2022-09-06T08:49:07.105Z,54.84
2022-09-06T08:50:09.851Z,54.27
2022-09-06T08:51:12.961Z,54.25
2022-09-06T08:52:33.183Z,53.86
2022-09-06T08:53:39.146Z,54.88
2022-09-06T08:54:46.320Z,54.78
2022-09-06T08:56:08.415Z,53.82
2022-09-06T08:57:10.151Z,54.18
2022-09-06T08:58:12.820Z,52.34
2022-09-06T08:59:17.141Z,53.33
2022-09-06T09:00:19.215Z,53.71
2022-09-06T09:01:24.874Z,54.63
2022-09-06T09:02:29.998Z,53.30
2022-09-06T09:03:38.871Z,52.99
2022-09-06T09:05:00.907Z,52.64
2022-09-06T09:06:07.726Z,50.80
2022-09-06T09:07:29.291Z,52.69
2022-09-06T09:08:50.471Z,53.08
2022-09-06T09:09:54.416Z,53.86
2022-09-06T09:11:01.890Z,52.46
2022-09-06T09:12:05.226Z,52.66
2022-09-06T09:13:07.740Z,52.24
2022-09-06T09:14:19.563Z,51.31
2022-09-06T09:15:21.896Z,50.13
2022-09-06T09:16:23.549Z,51.82
2022-09-06T09:17:27.552Z,50.43
2022-09-06T09:18:33.729Z,52.00
2022-09-06T09:19:41.451Z,51.66
2022-09-06T09:20:43.229Z,50.51
2022-09-06T09:21:44.771Z,50.32
2022-09-06T09:22:48.890Z,50.30
2022-09-06T09:23:55.075Z,51.02
2022-09-06T09:24:58.696Z,50.97
2022-09-06T09:26:03.605Z,50.78
2022-09-06T09:27:08.173Z,48.38
2022-09-06T09:28:13.840Z,50.62
2022-09-06T09:29:15.566Z,50.12
2022-09-06T09:31:40.631Z,49.91
2022-09-06T09:32:44.479Z,49.70
2022-09-06T09:33:46.307Z,50.05
2022-09-06T09:34:51.219Z,49.99
2022-09-06T09:35:56.494Z,49.91
2022-09-06T09:38:40.142Z,50.46
2022-09-06T09:39:41.942Z,51.01
2022-09-06T09:40:54.326Z,49.69
2022-09-06T09:41:55.911Z,49.57
2022-09-06T09:43:10.547Z,49.52
2022-09-06T09:44:18.837Z,50.02
2022-09-06T09:45:20.520Z,50.39
2022-09-06T09:46:22.572Z,50.02
2022-09-06T09:47:27.412Z,48.57
2022-09-06T09:48:29.483Z,48.78
2022-09-06T09:49:32.226Z,48.55
2022-09-06T09:50:34.602Z,47.90
2022-09-06T09:51:37.819Z,48.21
2022-09-06T09:52:43.543Z,47.91
2022-09-06T09:53:53.051Z,47.25
2022-09-06T09:55:01.079Z,47.08
2022-09-06T09:56:03.145Z,46.37
2022-09-06T09:57:11.708Z,46.12
2022-09-06T09:58:31.978Z,45.58
2022-09-06T09:59:41.625Z,45.61
2022-09-06T10:00:43.569Z,45.92
2022-09-06T10:01:45.334Z,46.15
2022-09-06T10:02:47.160Z,46.00
2022-09-06T10:05:12.729Z,45.62
2022-09-06T10:07:42.931Z,46.32
2022-09-06T10:08:44.686Z,46.66
2022-09-06T10:09:58.339Z,45.89
2022-09-06T10:11:00.405Z,45.34
2022-09-06T10:12:02.470Z,45.52
2022-09-06T10:13:07.059Z,44.81
2022-09-06T10:14:19.469Z,45.68
2022-09-06T10:15:39.357Z,45.84
2022-09-06T10:16:43.334Z,46.02
2022-09-06T10:17:51.220Z,46.26
2022-09-06T10:18:52.881Z,46.18
2022-09-06T10:19:56.545Z,45.71
2022-09-06T10:21:12.332Z,45.85
2022-09-06T10:22:25.728Z,45.63
2022-09-06T10:25:25.735Z,45.80
2022-09-06T10:26:27.458Z,45.97
2022-09-06T10:27:30.582Z,45.97
2022-09-06T10:28:32.321Z,46.19
2022-09-06T10:29:40.132Z,46.34
2022-09-06T10:30:50.391Z,46.18
2022-09-06T10:31:59.207Z,46.54
2022-09-06T10:33:13.194Z,46.36
2022-09-06T10:34:20.821Z,46.47
2022-09-06T10:35:23.693Z,46.21
2022-09-06T10:36:31.680Z,45.82
2022-09-06T10:37:52.286Z,46.72
2022-09-06T10:39:14.164Z,46.41
2022-09-06T10:40:21.923Z,46.44
2022-09-06T10:41:28.401Z,46.63
2022-09-06T10:42:44.707Z,46.68
2022-09-06T10:43:54.422Z,46.35
2022-09-06T10:45:03.030Z,45.85
2022-09-06T10:46:11.235Z,46.09
2022-09-06T10:47:14.309Z,46.17
2022-09-06T10:48:41.544Z,46.18
2022-09-06T10:49:50.690Z,46.80
2022-09-06T10:50:55.227Z,46.81
2022-09-06T10:52:00.521Z,46.83
2022-09-06T10:53:07.149Z,47.40
2022-09-06T10:54:13.130Z,46.80
2022-09-06T10:55:17.242Z,46.36
2022-09-06T10:56:37.149Z,46.49
2022-09-06T10:59:37.423Z,46.24
2022-09-06T11:00:46.110Z,46.69
2022-09-06T11:01:50.469Z,47.37
2022-09-06T11:04:26.453Z,47.74
2022-09-06T11:06:50.043Z,48.48
2022-09-06T11:09:26.877Z,47.95
2022-09-06T11:10:28.445Z,48.69
2022-09-06T11:11:39.004Z,48.79
2022-09-06T11:12:53.775Z,48.54
2022-09-06T11:13:55.355Z,48.96
2022-09-06T11:14:59.285Z,49.32
2022-09-06T11:16:20.005Z,50.01
2022-09-06T11:17:30.914Z,49.63
2022-09-06T11:18:39.356Z,48.24
2022-09-06T11:19:51.024Z,48.45
2022-09-06T11:21:08.197Z,48.76
2022-09-06T11:22:15.480Z,47.67
2022-09-06T11:23:16.994Z,47.71
2022-09-06T11:24:30.689Z,47.48
2022-09-06T11:25:41.147Z,47.44
2022-09-06T11:27:00.365Z,47.47
2022-09-06T11:28:05.329Z,47.64
2022-09-06T11:29:08.984Z,48.06
2022-09-06T11:30:15.045Z,48.08
2022-09-06T11:32:49.994Z,48.06
2022-09-06T11:34:12.454Z,47.69
2022-09-06T11:35:21.894Z,47.76
2022-09-06T11:36:34.432Z,48.11
2022-09-06T11:37:36.201Z,47.35
2022-09-06T11:38:37.808Z,46.68
2022-09-06T11:41:05.588Z,45.66
2022-09-06T11:42:09.751Z,45.00
2022-09-06T11:43:14.213Z,43.88
2022-09-06T11:44:35.874Z,44.53
2022-09-06T11:45:40.361Z,43.23
2022-09-06T11:46:42.444Z,43.89
2022-09-06T11:47:46.775Z,41.90
2022-09-06T11:49:00.460Z,40.65
2022-09-06T11:50:40.555Z,40.46
2022-09-06T11:51:43.434Z,38.53
2022-09-06T11:53:04.274Z,39.20
2022-09-06T11:54:18.022Z,38.58
2022-09-06T11:55:22.943Z,38.62
2022-09-06T11:56:32.927Z,37.54
2022-09-06T11:57:34.790Z,36.02
2022-09-06T11:58:39.620Z,35.35
2022-09-06T11:59:48.679Z,34.92
2022-09-06T12:01:09.375Z,35.62
2022-09-06T12:02:29.901Z,34.79
2022-09-06T12:05:07.078Z,34.23
2022-09-06T12:06:20.529Z,32.88
2022-09-06T12:07:22.134Z,33.51
2022-09-06T12:08:27.627Z,32.70
2022-09-06T12:09:31.078Z,32.71
2022-09-06T12:10:32.586Z,32.55
2022-09-06T12:11:34.363Z,32.72
2022-09-06T12:12:51.914Z,33.52
2022-09-06T12:13:54.268Z,34.09
2022-09-06T12:14:55.937Z,34.41
2022-09-06T12:15:57.704Z,35.42
2022-09-06T12:17:04.457Z,35.42
2022-09-06T12:18:06.053Z,34.53
2022-09-06T12:19:07.824Z,32.71
2022-09-06T12:20:10.755Z,33.56
2022-09-06T12:21:48.453Z,34.12
2022-09-06T12:22:51.069Z,35.02
2022-09-06T12:23:54.115Z,34.54
2022-09-06T12:24:57.148Z,34.50
2022-09-06T12:25:58.770Z,33.27
2022-09-06T12:27:19.410Z,32.95
2022-09-06T12:28:26.127Z,33.04
2022-09-06T12:29:27.906Z,33.01
2022-09-06T12:30:41.648Z,33.10
2022-09-06T12:31:50.403Z,33.10
2022-09-06T12:32:54.834Z,31.95
2022-09-06T12:33:57.709Z,31.54
2022-09-06T12:36:30.498Z,32.18
2022-09-06T12:37:34.780Z,31.21
2022-09-06T12:38:36.429Z,30.91
2022-09-06T12:39:48.360Z,31.18
2022-09-06T12:40:57.739Z,31.58
2022-09-06T12:42:00.724Z,30.89
2022-09-06T12:43:03.380Z,29.79
2022-09-06T12:44:06.958Z,31.40
2022-09-06T12:45:08.534Z,31.03
2022-09-06T12:46:10.241Z,31.07
2022-09-06T12:47:14.442Z,31.67
2022-09-06T12:48:27.788Z,32.23
2022-09-06T12:49:29.671Z,33.09
2022-09-06T12:50:31.462Z,33.20
2022-09-06T12:51:33.357Z,33.72
2022-09-06T12:52:43.125Z,34.18
2022-09-06T12:53:51.672Z,33.04
2022-09-06T12:54:53.404Z,33.02
2022-09-06T12:56:06.088Z,31.69
2022-09-06T12:57:12.215Z,31.28
2022-09-06T12:58:13.859Z,31.45
2022-09-06T12:59:26.593Z,31.45
2022-09-06T13:00:35.125Z,31.49
2022-09-06T13:01:44.394Z,31.49
2022-09-06T13:02:52.478Z,31.64
2022-09-06T13:04:02.244Z,31.86
2022-09-06T13:05:06.311Z,31.82
2022-09-06T13:06:18.096Z,31.57
2022-09-06T13:07:21.647Z,31.26
2022-09-06T13:08:28.959Z,31.32
2022-09-06T13:09:31.206Z,31.36
2022-09-06T13:10:34.009Z,32.08
2022-09-06T13:11:38.050Z,32.83
2022-09-06T13:12:42.343Z,32.82
2022-09-06T13:13:48.344Z,32.89
2022-09-06T13:14:52.090Z,32.85
2022-09-06T13:15:53.910Z,32.53
2022-09-06T13:16:59.570Z,32.42
2022-09-06T13:18:26.254Z,32.50
2022-09-06T13:19:38.837Z,32.28
2022-09-06T13:20:40.584Z,31.20
2022-09-06T13:21:43.544Z,30.29
2022-09-06T13:22:47.259Z,30.19
2022-09-06T13:23:52.362Z,29.76
2022-09-06T13:24:55.611Z,30.21
2022-09-06T13:25:57.327Z,30.86
2022-09-06T13:26:59.032Z,29.55
2022-09-06T13:28:01.848Z,30.35
2022-09-06T13:29:30.137Z,30.52
2022-09-06T13:30:49.066Z,30.04
2022-09-06T13:31:52.988Z,28.53
2022-09-06T13:32:57.694Z,29.11
2022-09-06T13:34:01.209Z,28.12
2022-09-06T13:35:04.111Z,28.16
2022-09-06T13:36:08.165Z,27.52
2022-09-06T13:37:10.283Z,27.13
2022-09-06T13:38:28.676Z,27.13
2022-09-06T13:39:48.796Z,27.20
2022-09-06T13:42:33.932Z,27.77
2022-09-06T13:43:45.640Z,27.81
2022-09-06T13:44:47.293Z,28.15
2022-09-06T13:45:49.073Z,28.53
2022-09-06T13:46:54.827Z,28.46
2022-09-06T13:48:13.017Z,28.88
2022-09-06T13:49:19.103Z,29.36
2022-09-06T13:50:23.610Z,31.09
2022-09-06T13:51:29.333Z,31.44
2022-09-06T13:52:30.931Z,31.82
2022-09-06T13:53:33.384Z,31.21
2022-09-06T13:54:35.163Z,31.55
2022-09-06T13:55:36.961Z,31.26
2022-09-06T13:56:39.092Z,31.10
2022-09-06T13:57:40.840Z,31.28
2022-09-06T13:58:44.713Z,31.68
2022-09-06T13:59:46.441Z,31.97
2022-09-06T14:00:51.087Z,31.90
2022-09-06T14:01:58.514Z,31.39
2022-09-06T14:03:00.598Z,31.37
2022-09-06T14:04:05.006Z,30.87
2022-09-06T14:05:07.041Z,30.02
2022-09-06T14:06:09.435Z,29.41
2022-09-06T14:07:11.564Z,29.36
2022-09-06T14:08:13.172Z,30.04
2022-09-06T14:09:14.669Z,30.03
2022-09-06T14:10:18.623Z,30.46
2022-09-06T14:11:20.221Z,30.15
2022-09-06T14:12:21.895Z,30.32
2022-09-06T14:13:25.333Z,29.84
2022-09-06T14:14:26.946Z,29.81
2022-09-06T14:15:28.697Z,30.25
2022-09-06T14:16:31.068Z,30.42
2022-09-06T14:17:32.704Z,30.22
2022-09-06T14:18:36.612Z,30.40
2022-09-06T14:19:38.361Z,30.42
2022-09-06T14:20:40.394Z,30.17
2022-09-06T14:21:42.883Z,30.61
2022-09-06T14:22:44.511Z,30.79
2022-09-06T14:23:50.487Z,31.02
2022-09-06T14:24:52.168Z,31.10
2022-09-06T14:26:00.728Z,30.96
2022-09-06T14:27:03.861Z,29.96
2022-09-06T14:28:05.512Z,29.05
2022-09-06T14:29:07.764Z,30.16
2022-09-06T14:30:09.798Z,30.10
2022-09-06T14:31:16.207Z,31.02
2022-09-06T14:32:22.570Z,30.74
2022-09-06T14:33:24.682Z,30.45
2022-09-06T14:34:27.179Z,30.32
2022-09-06T14:35:30.245Z,30.58
2022-09-06T14:36:32.836Z,30.77
2022-09-06T14:37:34.581Z,30.47
2022-09-06T14:38:41.311Z,30.61
2022-09-06T14:39:45.561Z,30.29
2022-09-06T14:40:47.196Z,30.83
2022-09-06T14:41:49.030Z,30.66
2022-09-06T14:42:50.830Z,30.70
2022-09-06T14:43:54.340Z,31.12